createdAt,value
2022-12-24T00:01:01.858Z,4.97
2022-12-24T00:03:03.729Z,4.94
2022-12-24T00:05:06.201Z,4.93
2022-12-24T00:07:07.721Z,4.98
2022-12-24T00:09:09.342Z,4.95
2022-12-24T00:11:10.979Z,5.04
2022-12-24T00:13:13.694Z,4.97
2022-12-24T00:15:15.236Z,4.97
2022-12-24T00:17:17.012Z,4.87
2022-12-24T00:19:18.634Z,4.93
2022-12-24T00:21:20.408Z,4.85
2022-12-24T00:23:21.989Z,4.80
2022-12-24T00:25:23.515Z,4.77
2022-12-24T00:27:25.130Z,4.79
2022-12-24T00:29:28.054Z,4.88
2022-12-24T00:31:29.922Z,4.84
2022-12-24T00:33:31.550Z,4.78
2022-12-24T00:35:33.737Z,4.79
2022-12-24T00:37:35.288Z,4.70
2022-12-24T00:39:36.825Z,4.74
2022-12-24T00:41:38.356Z,4.74
2022-12-24T00:43:39.851Z,4.77
2022-12-24T00:45:42.907Z,4.88
2022-12-24T00:47:44.458Z,4.85
2022-12-24T00:49:45.992Z,4.78
2022-12-24T00:51:47.552Z,4.79
2022-12-24T00:53:49.527Z,4.78
2022-12-24T00:55:51.069Z,4.75
2022-12-24T00:57:52.652Z,4.87
2022-12-24T00:59:54.140Z,4.90
2022-12-24T01:01:57.138Z,4.91
2022-12-24T01:03:58.769Z,4.84
2022-12-24T01:06:00.288Z,4.94
2022-12-24T01:08:01.857Z,4.90
2022-12-24T01:10:04.195Z,4.95
2022-12-24T01:12:06.006Z,4.87
2022-12-24T01:14:07.884Z,4.90
2022-12-24T01:16:17.149Z,4.93
2022-12-24T01:18:21.526Z,4.95
2022-12-24T01:20:23.069Z,4.97
2022-12-24T01:22:24.724Z,4.93
2022-12-24T01:24:26.063Z,4.94
2022-12-24T01:26:27.652Z,4.93
2022-12-24T01:28:29.420Z,4.98
2022-12-24T01:30:31.058Z,5.09
2022-12-24T01:32:32.386Z,5.01
2022-12-24T01:34:35.659Z,5.00
2022-12-24T01:36:37.359Z,5.06
2022-12-24T01:38:39.821Z,5.08
2022-12-24T01:40:42.531Z,5.01
2022-12-24T01:42:47.937Z,4.89
2022-12-24T01:44:51.937Z,4.86
2022-12-24T01:46:57.789Z,4.92
2022-12-24T01:49:02.724Z,4.89
2022-12-24T01:51:11.992Z,4.96
2022-12-24T01:53:14.912Z,5.01
2022-12-24T01:55:19.161Z,4.99
2022-12-24T01:57:24.315Z,5.02
2022-12-24T01:59:26.403Z,5.08
2022-12-24T02:01:28.113Z,5.08
2022-12-24T02:03:29.901Z,5.13
2022-12-24T02:05:34.772Z,5.12
2022-12-24T02:07:38.154Z,5.14
2022-12-24T02:09:40.126Z,5.10
2022-12-24T02:11:42.927Z,5.01
2022-12-24T02:13:47.858Z,5.06
2022-12-24T02:16:01.743Z,5.12
2022-12-24T02:18:09.719Z,5.15
2022-12-24T02:20:37.900Z,5.11
2022-12-24T02:23:02.111Z,5.00
2022-12-24T02:25:23.456Z,5.15
2022-12-24T02:27:32.514Z,5.14
2022-12-24T02:30:05.262Z,5.13
2022-12-24T02:32:14.207Z,5.11
2022-12-24T02:34:25.379Z,5.04
2022-12-24T02:36:34.361Z,5.11
2022-12-24T02:38:46.479Z,5.04
2022-12-24T02:40:52.016Z,4.98
2022-12-24T02:42:58.729Z,5.06
2022-12-24T02:45:07.900Z,5.04
2022-12-24T02:47:11.377Z,5.10
2022-12-24T02:49:13.832Z,5.15
2022-12-24T02:51:15.920Z,5.17
2022-12-24T02:53:17.474Z,5.19
2022-12-24T02:55:22.732Z,5.24
2022-12-24T02:57:33.495Z,5.15
2022-12-24T02:59:57.224Z,5.22
2022-12-24T03:02:10.902Z,5.23
2022-12-24T03:04:22.724Z,5.27
2022-12-24T03:06:33.604Z,5.13
2022-12-24T03:08:44.437Z,5.12
2022-12-24T03:10:50.712Z,5.20
2022-12-24T03:12:58.776Z,5.22
2022-12-24T03:15:00.983Z,5.12
2022-12-24T03:17:04.252Z,5.10
2022-12-24T03:19:05.901Z,5.10
2022-12-24T03:21:09.736Z,5.08
2022-12-24T03:23:12.633Z,5.09
2022-12-24T03:25:14.249Z,5.12
2022-12-24T03:27:15.901Z,5.06
2022-12-24T03:29:18.401Z,5.01
2022-12-24T03:31:20.698Z,5.04
2022-12-24T03:33:23.703Z,5.09
2022-12-24T03:35:25.563Z,5.10
2022-12-24T03:37:27.100Z,5.15
2022-12-24T03:39:28.783Z,5.22
2022-12-24T03:41:30.137Z,5.22
2022-12-24T03:43:32.189Z,5.16
2022-12-24T03:45:33.782Z,5.30
2022-12-24T03:47:35.162Z,5.31
2022-12-24T03:49:38.099Z,5.23
2022-12-24T03:51:39.607Z,5.16
2022-12-24T03:53:41.213Z,5.13
2022-12-24T03:55:45.211Z,5.24
2022-12-24T03:57:46.792Z,5.15
2022-12-24T03:59:48.325Z,5.21
2022-12-24T04:01:50.323Z,5.11
2022-12-24T04:03:52.143Z,5.09
2022-12-24T04:06:01.895Z,5.08
2022-12-24T04:08:03.456Z,5.08
2022-12-24T04:10:05.753Z,5.06
2022-12-24T04:12:07.762Z,4.95
2022-12-24T04:14:09.330Z,5.00
2022-12-24T04:16:13.103Z,5.02
2022-12-24T04:18:14.714Z,5.01
2022-12-24T04:20:16.377Z,5.00
2022-12-24T04:22:19.103Z,4.94
2022-12-24T04:24:20.680Z,5.02
2022-12-24T04:26:22.309Z,4.97
2022-12-24T04:28:23.646Z,5.07
2022-12-24T04:30:25.460Z,5.08
2022-12-24T04:32:27.348Z,5.12
2022-12-24T04:34:28.913Z,5.17
2022-12-24T04:36:30.568Z,5.19
2022-12-24T04:38:33.795Z,5.22
2022-12-24T04:40:36.999Z,5.25
2022-12-24T04:42:38.687Z,5.21
2022-12-24T04:44:40.018Z,5.30
2022-12-24T04:46:41.572Z,5.34
2022-12-24T04:48:43.268Z,5.35
2022-12-24T04:50:44.822Z,5.44
2022-12-24T04:52:46.386Z,5.42
2022-12-24T04:54:49.356Z,5.45
2022-12-24T04:56:50.885Z,5.43
2022-12-24T04:58:53.111Z,5.57
2022-12-24T05:00:55.148Z,5.58
2022-12-24T05:02:56.813Z,5.68
2022-12-24T05:04:58.193Z,5.68
2022-12-24T05:06:59.747Z,5.64
2022-12-24T05:09:01.448Z,5.71
2022-12-24T05:11:05.223Z,5.74
2022-12-24T05:13:06.748Z,5.70
2022-12-24T05:15:08.817Z,5.73
2022-12-24T05:17:10.543Z,5.52
2022-12-24T05:19:12.119Z,5.57
2022-12-24T05:21:16.009Z,5.52
2022-12-24T05:23:19.013Z,5.51
2022-12-24T05:25:20.572Z,5.49
2022-12-24T05:27:23.525Z,5.55
2022-12-24T05:29:25.097Z,5.53
2022-12-24T05:31:29.778Z,5.51
2022-12-24T05:33:31.258Z,5.48
2022-12-24T05:35:32.815Z,5.47
2022-12-24T05:37:34.404Z,5.49
2022-12-24T05:39:35.751Z,5.38
2022-12-24T05:41:37.275Z,5.38
2022-12-24T05:43:40.359Z,5.37
2022-12-24T05:45:41.899Z,5.31
2022-12-24T05:47:43.849Z,5.29
2022-12-24T05:49:45.454Z,5.28
2022-12-24T05:51:46.978Z,5.34
2022-12-24T05:53:49.537Z,5.38
2022-12-24T05:55:54.053Z,5.33
2022-12-24T05:57:55.593Z,5.36
2022-12-24T05:59:58.525Z,5.43
2022-12-24T06:02:00.310Z,5.50
2022-12-24T06:04:02.105Z,5.60
2022-12-24T06:06:06.728Z,5.51
2022-12-24T06:08:08.294Z,5.50
2022-12-24T06:10:10.509Z,5.34
2022-12-24T06:12:12.052Z,5.53
2022-12-24T06:14:15.516Z,5.52
2022-12-24T06:16:19.948Z,5.48
2022-12-24T06:18:21.659Z,5.60
2022-12-24T06:20:23.010Z,5.41
2022-12-24T06:22:24.593Z,5.23
2022-12-24T06:24:26.098Z,5.40
2022-12-24T06:26:27.671Z,5.44
2022-12-24T06:28:30.003Z,5.62
2022-12-24T06:30:31.557Z,5.55
2022-12-24T06:32:34.556Z,5.62
2022-12-24T06:34:36.102Z,5.63
2022-12-24T06:36:37.642Z,5.70
2022-12-24T06:38:39.222Z,5.68
2022-12-24T06:40:42.317Z,5.56
2022-12-24T06:42:43.891Z,5.60
2022-12-24T06:44:45.428Z,5.66
2022-12-24T06:46:47.044Z,5.88
2022-12-24T06:48:50.002Z,5.90
2022-12-24T06:50:51.650Z,5.70
2022-12-24T06:52:54.987Z,5.50
2022-12-24T06:54:56.513Z,5.52
2022-12-24T06:56:58.172Z,5.59
2022-12-24T06:59:05.108Z,5.65
2022-12-24T07:01:09.451Z,5.62
2022-12-24T07:03:11.928Z,5.68
2022-12-24T07:05:14.885Z,5.63
2022-12-24T07:07:16.571Z,5.48
2022-12-24T07:09:17.956Z,5.64
2022-12-24T07:11:20.054Z,5.70
2022-12-24T07:13:21.786Z,5.64
2022-12-24T07:15:23.337Z,5.65
2022-12-24T07:17:24.992Z,5.57
2022-12-24T07:19:26.366Z,5.77
2022-12-24T07:21:29.419Z,5.92
2022-12-24T07:23:31.051Z,5.91
2022-12-24T07:25:32.384Z,5.91
2022-12-24T07:27:34.012Z,5.83
2022-12-24T07:29:35.382Z,5.66
2022-12-24T07:31:37.016Z,5.61
2022-12-24T07:33:38.505Z,5.67
2022-12-24T07:35:40.088Z,5.67
2022-12-24T07:37:42.837Z,5.75
2022-12-24T07:39:44.932Z,6.13
2022-12-24T07:41:46.445Z,5.98
2022-12-24T07:43:47.985Z,5.68
2022-12-24T07:45:49.994Z,5.60
2022-12-24T07:47:51.537Z,5.53
2022-12-24T07:49:53.755Z,5.63
2022-12-24T07:51:55.339Z,5.59
2022-12-24T07:53:58.049Z,5.79
2022-12-24T07:56:06.178Z,5.92
2022-12-24T07:58:10.573Z,5.86
2022-12-24T08:00:12.744Z,5.73
2022-12-24T08:02:18.263Z,5.64
2022-12-24T08:04:20.361Z,5.83
2022-12-24T08:06:21.891Z,5.98
2022-12-24T08:08:23.480Z,6.25
2022-12-24T08:10:26.313Z,6.27
2022-12-24T08:12:30.723Z,6.17
2022-12-24T08:14:32.291Z,6.21
2022-12-24T08:16:33.908Z,6.23
2022-12-24T08:18:35.560Z,6.19
2022-12-24T08:20:38.440Z,6.27
2022-12-24T08:22:39.961Z,6.26
2022-12-24T08:24:41.570Z,6.09
2022-12-24T08:26:44.249Z,6.10
2022-12-24T08:28:45.806Z,6.14
2022-12-24T08:30:48.290Z,6.09
2022-12-24T08:32:49.811Z,6.06
2022-12-24T08:34:51.505Z,6.06
2022-12-24T08:36:53.015Z,6.08
2022-12-24T08:38:54.554Z,6.05
2022-12-24T08:40:56.423Z,6.10
2022-12-24T08:43:01.696Z,6.17
2022-12-24T08:45:03.566Z,6.30
2022-12-24T08:47:05.109Z,6.16
2022-12-24T08:49:06.642Z,6.40
2022-12-24T08:51:09.297Z,6.30
2022-12-24T08:53:11.280Z,6.07
2022-12-24T08:55:12.844Z,6.08
2022-12-24T08:57:14.385Z,6.05
2022-12-24T08:59:17.141Z,6.08
2022-12-24T09:01:20.079Z,6.13
2022-12-24T09:03:27.452Z,6.27
2022-12-24T09:05:29.757Z,6.38
2022-12-24T09:07:31.288Z,6.42
2022-12-24T09:09:37.867Z,6.35
2022-12-24T09:11:39.843Z,6.32
2022-12-24T09:13:41.686Z,6.36
2022-12-24T09:15:52.938Z,6.38
2022-12-24T09:17:54.534Z,5.97
2022-12-24T09:19:55.865Z,6.02
2022-12-24T09:21:57.365Z,5.95
2022-12-24T09:23:58.904Z,5.71
2022-12-24T09:26:00.410Z,6.05
2022-12-24T09:28:01.926Z,6.12
2022-12-24T09:30:04.692Z,6.21
2022-12-24T09:32:07.869Z,6.23
2022-12-24T09:34:09.711Z,6.21
2022-12-24T09:36:11.713Z,6.39
2022-12-24T09:38:13.238Z,6.35
2022-12-24T09:40:24.217Z,6.32
2022-12-24T09:42:37.286Z,6.39
2022-12-24T09:44:45.309Z,6.45
2022-12-24T09:46:49.485Z,6.40
2022-12-24T09:48:55.595Z,6.51
2022-12-24T09:51:01.380Z,6.54
2022-12-24T09:53:10.615Z,6.61
2022-12-24T09:55:20.957Z,6.67
2022-12-24T09:57:28.188Z,6.78
2022-12-24T09:59:39.667Z,6.59
2022-12-24T10:01:41.757Z,6.68
2022-12-24T10:03:44.026Z,6.65
2022-12-24T10:05:57.608Z,6.74
2022-12-24T10:08:10.861Z,6.65
2022-12-24T10:10:23.777Z,6.72
2022-12-24T10:12:32.363Z,6.71
2022-12-24T10:14:45.662Z,6.75
2022-12-24T10:16:57.008Z,6.80
2022-12-24T10:19:10.291Z,6.78
2022-12-24T10:21:16.572Z,6.79
2022-12-24T10:23:24.167Z,6.90
2022-12-24T10:25:30.636Z,6.99
2022-12-24T10:27:36.341Z,6.83
2022-12-24T10:29:42.314Z,6.78
2022-12-24T10:31:53.795Z,6.92
2022-12-24T10:33:59.769Z,6.84
2022-12-24T10:36:05.387Z,6.94
2022-12-24T10:38:11.200Z,7.06
2022-12-24T10:40:24.082Z,7.09
2022-12-24T10:42:38.535Z,6.82
2022-12-24T10:44:40.221Z,6.85
2022-12-24T10:46:42.205Z,6.92
2022-12-24T10:48:51.001Z,7.07
2022-12-24T10:50:58.233Z,7.08
2022-12-24T10:53:07.023Z,6.97
2022-12-24T10:55:20.791Z,7.15
2022-12-24T10:57:26.096Z,7.17
2022-12-24T10:59:30.260Z,7.04
2022-12-24T11:01:45.406Z,7.15
2022-12-24T11:04:00.902Z,7.17
2022-12-24T11:06:09.195Z,7.03
2022-12-24T11:08:15.947Z,6.91
2022-12-24T11:10:23.915Z,7.03
2022-12-24T11:12:28.179Z,7.01
2022-12-24T11:14:34.542Z,7.15
2022-12-24T11:16:36.872Z,7.19
2022-12-24T11:18:50.809Z,7.10
2022-12-24T11:20:53.446Z,7.20
2022-12-24T11:22:56.244Z,7.33
2022-12-24T11:25:02.481Z,7.29
2022-12-24T11:27:30.226Z,7.21
2022-12-24T11:29:31.759Z,7.30
2022-12-24T11:31:33.412Z,7.25
2022-12-24T11:33:46.639Z,7.50
2022-12-24T11:35:54.772Z,7.37
2022-12-24T11:38:10.744Z,7.39
2022-12-24T11:40:21.094Z,7.37
2022-12-24T11:42:28.390Z,7.56
2022-12-24T11:44:32.865Z,7.50
2022-12-24T11:46:39.554Z,7.70
2022-12-24T11:48:41.294Z,7.73
2022-12-24T11:50:42.871Z,7.69
2022-12-24T11:52:45.993Z,7.73
2022-12-24T11:55:17.565Z,7.69
2022-12-24T11:57:22.603Z,7.67
2022-12-24T11:59:31.616Z,7.78
2022-12-24T12:01:43.319Z,7.70
2022-12-24T12:03:49.096Z,7.75
2022-12-24T12:05:53.570Z,7.79
2022-12-24T12:08:01.412Z,8.02
2022-12-24T12:10:06.055Z,7.95
2022-12-24T12:12:16.422Z,8.07
2022-12-24T12:14:22.365Z,8.08
2022-12-24T12:16:29.548Z,8.15
2022-12-24T12:18:39.257Z,8.14
2022-12-24T12:20:45.150Z,8.15
2022-12-24T12:22:55.753Z,8.10
2022-12-24T12:25:01.433Z,8.10
2022-12-24T12:27:09.187Z,8.16
2022-12-24T12:29:21.075Z,8.26
2022-12-24T12:31:26.909Z,8.17
2022-12-24T12:33:36.360Z,8.15
2022-12-24T12:35:41.729Z,8.16
2022-12-24T12:37:55.691Z,8.22
2022-12-24T12:39:57.242Z,8.31
2022-12-24T12:42:02.409Z,8.35
2022-12-24T12:44:21.735Z,8.33
2022-12-24T12:46:36.947Z,8.17
2022-12-24T12:49:03.356Z,8.25
2022-12-24T12:51:08.916Z,8.30
2022-12-24T12:53:26.786Z,8.27
2022-12-24T12:55:40.573Z,8.28
2022-12-24T12:57:44.875Z,8.38
2022-12-24T12:59:53.553Z,8.34
2022-12-24T13:02:09.387Z,8.39
2022-12-24T13:04:36.257Z,8.40
2022-12-24T13:07:08.712Z,8.48
2022-12-24T13:09:28.082Z,8.45
2022-12-24T13:11:46.421Z,8.46
2022-12-24T13:14:31.984Z,8.39
2022-12-24T13:17:21.175Z,8.45
2022-12-24T13:19:38.507Z,8.58
2022-12-24T13:21:44.226Z,8.57
2022-12-24T13:23:45.820Z,8.70
2022-12-24T13:25:48.290Z,8.68
2022-12-24T13:27:49.867Z,8.68
2022-12-24T13:29:52.748Z,8.72
2022-12-24T13:32:19.797Z,8.79
2022-12-24T13:34:36.574Z,8.86
2022-12-24T13:37:21.608Z,8.79
2022-12-24T13:39:23.118Z,8.92
2022-12-24T13:41:49.596Z,8.93
2022-12-24T13:44:04.303Z,8.92
2022-12-24T13:46:07.632Z,8.89
2022-12-24T13:48:22.477Z,8.77
2022-12-24T13:50:44.350Z,8.85
2022-12-24T13:52:51.708Z,8.84
2022-12-24T13:55:17.938Z,8.73
2022-12-24T13:57:39.799Z,8.71
2022-12-24T13:59:42.482Z,8.61
2022-12-24T14:01:44.963Z,8.53
2022-12-24T14:03:51.637Z,8.45
2022-12-24T14:05:58.819Z,8.21
2022-12-24T14:08:06.813Z,8.30
2022-12-24T14:10:21.462Z,8.39
2022-12-24T14:12:45.871Z,8.30
2022-12-24T14:14:47.480Z,8.36
2022-12-24T14:16:50.251Z,8.15
2022-12-24T14:18:59.308Z,8.05
2022-12-24T14:21:03.721Z,8.07
2022-12-24T14:23:06.479Z,8.04
2022-12-24T14:25:16.737Z,7.98
2022-12-24T14:27:21.629Z,8.09
2022-12-24T14:29:29.829Z,8.01
2022-12-24T14:31:31.763Z,8.05
2022-12-24T14:33:34.595Z,7.88
2022-12-24T14:35:40.029Z,7.96
2022-12-24T14:37:46.217Z,7.95
2022-12-24T14:39:49.016Z,7.89
2022-12-24T14:41:59.957Z,7.73
2022-12-24T14:44:10.123Z,7.59
2022-12-24T14:46:19.672Z,7.69
2022-12-24T14:48:30.249Z,7.73
2022-12-24T14:50:54.333Z,7.74
2022-12-24T14:53:09.441Z,7.73
2022-12-24T14:55:32.058Z,7.56
2022-12-24T14:57:33.636Z,7.50
2022-12-24T14:59:40.877Z,7.51
2022-12-24T15:01:42.655Z,7.41
2022-12-24T15:03:44.459Z,7.28
2022-12-24T15:05:50.329Z,7.38
2022-12-24T15:07:58.841Z,7.28
2022-12-24T15:10:02.196Z,7.32
2022-12-24T15:12:04.233Z,7.27
2022-12-24T15:14:05.873Z,7.15
2022-12-24T15:16:09.354Z,7.22
2022-12-24T15:18:16.716Z,7.09
2022-12-24T15:20:21.527Z,7.15
2022-12-24T15:22:26.621Z,7.22
2022-12-24T15:24:32.109Z,7.13
2022-12-24T15:26:35.122Z,7.15
2022-12-24T15:28:38.289Z,7.01
2022-12-24T15:30:39.984Z,7.01
2022-12-24T15:32:41.622Z,6.96
2022-12-24T15:34:44.074Z,6.98
2022-12-24T15:36:45.961Z,7.05
2022-12-24T15:38:53.554Z,7.04
2022-12-24T15:40:57.023Z,6.98
2022-12-24T15:42:59.159Z,6.96
2022-12-24T15:45:03.676Z,6.87
2022-12-24T15:47:08.479Z,7.00
2022-12-24T15:49:17.329Z,6.86
2022-12-24T15:51:27.914Z,6.85
2022-12-24T15:53:32.147Z,6.94
2022-12-24T15:55:37.690Z,6.89
2022-12-24T15:57:40.775Z,6.82
2022-12-24T15:59:42.751Z,6.82
2022-12-24T16:01:45.711Z,6.93
2022-12-24T16:03:59.273Z,6.95
2022-12-24T16:06:02.281Z,6.88
2022-12-24T16:08:22.868Z,6.95
2022-12-24T16:10:24.559Z,6.83
2022-12-24T16:12:26.567Z,7.01
2022-12-24T16:14:31.240Z,6.86
2022-12-24T16:16:35.931Z,6.91
2022-12-24T16:18:40.039Z,6.91
2022-12-24T16:20:48.790Z,7.07
2022-12-24T16:22:51.030Z,7.02
2022-12-24T16:24:52.821Z,6.89
2022-12-24T16:26:55.059Z,6.97
2022-12-24T16:28:56.730Z,6.96
2022-12-24T16:30:59.852Z,7.05
2022-12-24T16:33:01.484Z,7.11
2022-12-24T16:35:04.015Z,7.05
2022-12-24T16:37:05.616Z,6.94
2022-12-24T16:39:06.953Z,7.00
2022-12-24T16:41:08.560Z,6.95
2022-12-24T16:43:10.380Z,6.83
2022-12-24T16:45:11.965Z,6.88
2022-12-24T16:47:19.403Z,6.82
2022-12-24T16:49:22.467Z,6.99
2022-12-24T16:51:24.016Z,6.85
2022-12-24T16:53:25.557Z,6.80
2022-12-24T16:55:27.134Z,6.89
2022-12-24T16:57:28.774Z,6.87
2022-12-24T16:59:30.520Z,6.94
2022-12-24T17:01:32.123Z,6.74
2022-12-24T17:03:35.274Z,6.84
2022-12-24T17:05:38.155Z,6.89
2022-12-24T17:07:43.744Z,6.90
2022-12-24T17:09:45.881Z,6.78
2022-12-24T17:11:47.501Z,6.80
2022-12-24T17:13:48.892Z,6.91
2022-12-24T17:15:50.476Z,6.97
2022-12-24T17:17:52.199Z,6.98
2022-12-24T17:19:56.365Z,7.01
2022-12-24T17:21:57.924Z,7.07
2022-12-24T17:23:59.328Z,7.00
2022-12-24T17:26:01.103Z,6.99
2022-12-24T17:28:02.620Z,6.97
2022-12-24T17:30:05.267Z,7.01
2022-12-24T17:32:06.891Z,7.05
2022-12-24T17:34:08.924Z,7.27
2022-12-24T17:36:11.873Z,7.34
2022-12-24T17:38:13.577Z,7.31
2022-12-24T17:40:21.053Z,7.27
2022-12-24T17:42:36.501Z,7.19
2022-12-24T17:44:39.720Z,7.27
2022-12-24T17:46:41.360Z,7.22
2022-12-24T17:48:43.701Z,7.19
2022-12-24T17:50:45.638Z,7.27
2022-12-24T17:52:48.569Z,7.25
2022-12-24T17:54:50.111Z,7.32
2022-12-24T17:56:51.467Z,7.31
2022-12-24T17:58:53.008Z,7.14
2022-12-24T18:00:54.639Z,7.16
2022-12-24T18:02:56.276Z,7.23
2022-12-24T18:04:58.049Z,7.24
2022-12-24T18:07:02.482Z,7.22
2022-12-24T18:09:05.980Z,7.10
2022-12-24T18:11:11.607Z,7.28
2022-12-24T18:13:19.046Z,7.31
2022-12-24T18:15:22.140Z,7.25
2022-12-24T18:17:23.754Z,7.27
2022-12-24T18:19:25.159Z,7.26
2022-12-24T18:21:28.419Z,7.21
2022-12-24T18:23:29.998Z,7.13
2022-12-24T18:25:32.738Z,7.15
2022-12-24T18:27:34.591Z,7.32
2022-12-24T18:29:36.297Z,7.28
2022-12-24T18:31:38.697Z,7.33
2022-12-24T18:33:41.326Z,7.44
2022-12-24T18:35:42.860Z,7.33
2022-12-24T18:37:44.326Z,7.23
2022-12-24T18:39:45.956Z,7.25
2022-12-24T18:41:48.914Z,7.17
2022-12-24T18:43:50.948Z,7.19
2022-12-24T18:45:52.590Z,7.11
2022-12-24T18:47:54.171Z,7.13
2022-12-24T18:49:55.818Z,7.10
2022-12-24T18:51:57.470Z,7.12
2022-12-24T18:53:59.213Z,7.11
2022-12-24T18:56:04.959Z,7.15
2022-12-24T18:58:07.923Z,7.14
2022-12-24T19:00:10.717Z,7.09
2022-12-24T19:02:14.381Z,7.21
2022-12-24T19:04:16.005Z,7.11
2022-12-24T19:06:17.978Z,7.23
2022-12-24T19:08:55.951Z,7.20
2022-12-24T19:10:41.622Z,7.35
2022-12-24T19:12:43.176Z,7.29
2022-12-24T19:14:45.894Z,7.23
2022-12-24T19:16:47.502Z,7.35
2022-12-24T19:18:50.747Z,7.25
2022-12-24T19:20:52.417Z,7.18
2022-12-24T19:22:54.217Z,7.08
2022-12-24T19:24:56.239Z,7.13
2022-12-24T19:26:57.792Z,7.05
2022-12-24T19:28:59.133Z,7.01
2022-12-24T19:31:07.813Z,7.01
2022-12-24T19:33:09.808Z,7.04
2022-12-24T19:35:11.751Z,7.01
2022-12-24T19:37:13.437Z,7.10
2022-12-24T19:39:15.505Z,7.04
2022-12-24T19:41:18.748Z,6.96
2022-12-24T19:43:20.283Z,6.86
2022-12-24T19:45:23.168Z,6.89
2022-12-24T19:47:26.579Z,6.80
2022-12-24T19:49:28.228Z,6.97
2022-12-24T19:51:29.845Z,7.12
2022-12-24T19:53:31.278Z,7.05
2022-12-24T19:55:32.969Z,7.09
2022-12-24T19:57:34.786Z,7.08
2022-12-24T19:59:37.655Z,7.03
2022-12-24T20:01:39.442Z,6.95
2022-12-24T20:03:43.300Z,6.87
2022-12-24T20:05:45.175Z,6.91
2022-12-24T20:07:46.740Z,6.72
2022-12-24T20:09:48.357Z,6.75
2022-12-24T20:11:49.851Z,6.82
2022-12-24T20:13:51.397Z,6.64
2022-12-24T20:15:52.780Z,6.60
2022-12-24T20:17:54.371Z,6.67
2022-12-24T20:19:57.083Z,6.64
2022-12-24T20:21:58.706Z,6.70
2022-12-24T20:24:00.128Z,6.73
2022-12-24T20:26:03.480Z,6.74
2022-12-24T20:28:05.700Z,6.88
2022-12-24T20:30:08.496Z,7.02
2022-12-24T20:32:10.138Z,7.08
2022-12-24T20:34:14.462Z,6.99
2022-12-24T20:36:19.870Z,7.12
2022-12-24T20:38:21.434Z,6.98
2022-12-24T20:40:22.869Z,6.93
2022-12-24T20:42:24.497Z,6.91
2022-12-24T20:44:25.852Z,6.95
2022-12-24T20:46:27.995Z,6.94
2022-12-24T20:48:29.748Z,6.73
2022-12-24T20:50:31.636Z,6.79
2022-12-24T20:52:34.556Z,6.75
2022-12-24T20:54:36.113Z,6.70
2022-12-24T20:56:37.569Z,6.65
2022-12-24T20:58:39.199Z,6.75
2022-12-24T21:00:40.662Z,6.89
2022-12-24T21:02:42.768Z,6.79
2022-12-24T21:04:44.562Z,6.76
2022-12-24T21:06:45.919Z,6.95
2022-12-24T21:08:50.614Z,6.95
2022-12-24T21:10:52.673Z,6.96
2022-12-24T21:12:54.233Z,6.92
2022-12-24T21:14:55.559Z,6.84
2022-12-24T21:16:57.228Z,6.96
2022-12-24T21:18:59.300Z,7.06
2022-12-24T21:21:00.909Z,6.92
2022-12-24T21:23:02.346Z,6.87
2022-12-24T21:25:07.236Z,6.72
2022-12-24T21:27:08.861Z,6.76
2022-12-24T21:29:10.457Z,6.92
2022-12-24T21:31:14.256Z,6.91
2022-12-24T21:33:15.954Z,7.00
2022-12-24T21:35:17.453Z,6.83
2022-12-24T21:37:19.309Z,6.88
2022-12-24T21:39:20.850Z,6.90
2022-12-24T21:41:23.727Z,6.82
2022-12-24T21:43:25.321Z,6.76
2022-12-24T21:45:26.940Z,6.81
2022-12-24T21:47:28.341Z,6.65
2022-12-24T21:49:29.917Z,6.59
2022-12-24T21:51:31.666Z,6.61
2022-12-24T21:53:33.251Z,6.54
2022-12-24T21:55:34.875Z,6.71
2022-12-24T21:57:37.670Z,6.67
2022-12-24T21:59:39.520Z,6.73
2022-12-24T22:01:41.109Z,6.62
2022-12-24T22:03:42.965Z,6.70
2022-12-24T22:05:44.629Z,6.64
2022-12-24T22:07:45.995Z,6.58
2022-12-24T22:09:47.663Z,6.64
2022-12-24T22:11:54.415Z,6.63
2022-12-24T22:13:58.059Z,6.60
2022-12-24T22:15:59.586Z,6.62
2022-12-24T22:18:01.172Z,6.59
2022-12-24T22:20:03.202Z,6.59
2022-12-24T22:22:04.856Z,6.64
2022-12-24T22:24:07.060Z,6.70
2022-12-24T22:26:11.443Z,6.71
2022-12-24T22:28:15.507Z,6.77
2022-12-24T22:30:19.009Z,6.74
2022-12-24T22:32:20.923Z,6.78
2022-12-24T22:34:22.520Z,6.76
2022-12-24T22:36:23.908Z,6.81
2022-12-24T22:38:25.447Z,6.80
2022-12-24T22:40:26.972Z,6.72
2022-12-24T22:42:31.116Z,6.68
2022-12-24T22:44:32.798Z,6.71
2022-12-24T22:46:36.031Z,6.76
2022-12-24T22:48:38.273Z,6.70
2022-12-24T22:50:40.092Z,6.62
2022-12-24T22:52:41.671Z,6.78
2022-12-24T22:54:43.095Z,6.75
2022-12-24T22:56:44.632Z,6.72
2022-12-24T22:58:46.446Z,6.68
2022-12-24T23:00:48.015Z,6.58
2022-12-24T23:02:50.930Z,6.50
2022-12-24T23:04:52.542Z,6.44
2022-12-24T23:06:54.161Z,6.44
2022-12-24T23:08:55.525Z,6.34
2022-12-24T23:11:06.423Z,6.26
2022-12-24T23:13:14.458Z,6.30
2022-12-24T23:15:16.723Z,6.52
2022-12-24T23:17:18.381Z,6.45
2022-12-24T23:19:21.147Z,6.24
2022-12-24T23:21:22.977Z,5.99
2022-12-24T23:23:24.770Z,6.00
2022-12-24T23:25:26.467Z,5.93
2022-12-24T23:27:28.015Z,6.15
2022-12-24T23:29:30.062Z,6.17
2022-12-24T23:31:31.691Z,6.10
2022-12-24T23:33:34.138Z,6.07
2022-12-24T23:35:37.133Z,6.15
2022-12-24T23:37:38.752Z,6.22
2022-12-24T23:39:40.131Z,6.10
2022-12-24T23:41:46.027Z,5.96
2022-12-24T23:43:47.908Z,5.97
2022-12-24T23:45:52.221Z,5.91
2022-12-24T23:47:53.791Z,5.90
2022-12-24T23:49:55.303Z,5.88
2022-12-24T23:51:58.266Z,5.80
2022-12-24T23:53:59.821Z,5.79
2022-12-24T23:56:01.808Z,5.87
2022-12-24T23:58:04.425Z,5.83
